• Join FlightAware (Why Join?)
  • Login
  • US Flag GB Flag 
00:36 EST


 

Airport Tracker/Info


-or-


 

Live Flight TrackerFlight Track Log ✈ EGF4186 ✈ 09-May-2013 ✈ KMSN - KORD

Flight Track Log - Related Links

Times and Time Zones

All times are in EDT time to prevent confusion due to time zone crossing. See the EGF4186 flight status page for this flight to view local times or setup timezone preferences in your user account.

Time Position Orientation Groundspeed Altitude Reporting Facility
EDT Latitude Longitude Course Direction KTS MPH feet Rate Location/Type
07:10 43.2011 -89.2581 163° South 203 234 4,200  Level Chicago Center
07:11 42.9529 -89.2545 164° South  Level FlightAware Approximate
07:11 43.1389 -89.2239 158° South 244 281 5,900  Level Chicago Center
07:12 42.8919 -89.2333 180° South  Level FlightAware Approximate
07:12 43.0678 -89.2114 173° South 255 293 8,300  Level Chicago Center
07:13 42.8337 -89.2057 166° South  Level FlightAware Approximate
07:13 42.9964 -89.1953 171° South 261 300 10,400  Level Chicago Center
07:14 42.7717 -89.1888 170° South  Level FlightAware Approximate
07:14 42.9094 -89.1403 155° Southeast 316 364 11,000  Level Chicago Center
07:15 42.7020 -89.1633 163° South  Level FlightAware Approximate
07:15 42.8375 -89.0517 138° Southeast 347 399 11,000  Level Chicago Center
07:16 42.7647 -88.9636 138° Southeast 349 402 11,000  Level Chicago Center
07:17 42.6914 -88.8764 139° Southeast 351 404 11,000  Level Chicago Center
07:18 42.6175 -88.7878 139° Southeast 354 407 11,000 -300 Level Chicago Center
07:19 42.5425 -88.6989 139° Southeast 357 411 10,500 -540 Descending Chicago Center
07:20 42.4708 -88.6122 138° Southeast 347 399 10,000 -300 Descending Chicago Center
07:21 42.3986 -88.5286 139° Southeast 343 395 10,000  Level Chicago Center
07:22 42.3497 -88.4186 121° Southeast 349 402 10,000  Level Chicago Center
07:23 42.2886 -88.3017 125° Southeast 343 395 10,000  Level Chicago Center
07:24 42.2269 -88.1997 129° Southeast 350 403 10,000 -240 Level Chicago Center
07:25 42.1639 -88.1306 141° Southeast 308 354 9,600 -1,080 Descending Chicago Center
07:26 42.1144 -88.0556 132° Southeast 285 328 7,800 -1,800 Descending Chicago Center
07:26 42.1000 -88.0167 117° Southeast 275 316 7,300 -660 Descending Chicago TRACON
07:27 42.0833 -87.9333 105° East 245 282 7,000 -600 Descending Chicago TRACON
07:29 42.0833 -87.8333 90° East 236 272 6,000 -840 Descending Chicago TRACON